createdAt,value
2023-03-31T00:00:47.289Z,3.70
2023-03-31T00:03:48.821Z,2.92
2023-03-31T00:06:54.231Z,3.60
2023-03-31T00:10:07.093Z,3.20
2023-03-31T00:13:17.752Z,3.40
2023-03-31T00:16:19.348Z,4.00
2023-03-31T00:19:21.187Z,3.40
2023-03-31T00:22:22.703Z,4.03
2023-03-31T00:25:24.112Z,3.55
2023-03-31T00:28:25.489Z,3.67
2023-03-31T00:31:27.964Z,3.67
2023-03-31T00:34:30.060Z,3.90
2023-03-31T00:37:35.315Z,3.70
2023-03-31T00:40:36.809Z,4.35
2023-03-31T00:43:38.799Z,5.00
2023-03-31T00:46:52.478Z,4.32
2023-03-31T00:49:59.712Z,4.60
2023-03-31T00:53:08.626Z,5.57
2023-03-31T00:56:14.842Z,5.18
2023-03-31T00:59:17.682Z,5.05
2023-03-31T01:02:21.978Z,4.63
2023-03-31T01:05:27.762Z,5.00
2023-03-31T01:08:30.480Z,4.60
2023-03-31T01:11:32.019Z,4.93
2023-03-31T01:14:34.069Z,4.65
2023-03-31T01:17:36.908Z,4.30
2023-03-31T01:21:18.625Z,4.97
2023-03-31T01:24:47.302Z,5.22
2023-03-31T01:28:02.025Z,4.55
2023-03-31T01:31:41.839Z,4.72
2023-03-31T01:35:20.263Z,4.93
2023-03-31T01:38:33.717Z,4.78
2023-03-31T01:41:38.156Z,5.15
2023-03-31T01:45:06.432Z,4.65
2023-03-31T01:48:14.750Z,5.00
2023-03-31T01:51:22.193Z,5.30
2023-03-31T01:54:39.296Z,5.18
2023-03-31T01:57:52.470Z,6.00
2023-03-31T02:01:03.617Z,6.32
2023-03-31T02:04:17.293Z,5.55
2023-03-31T02:07:24.730Z,6.20
2023-03-31T02:10:30.757Z,6.22
2023-03-31T02:13:37.150Z,5.75
2023-03-31T02:16:47.341Z,5.55
2023-03-31T02:19:52.691Z,5.70
2023-03-31T02:22:56.628Z,5.80
2023-03-31T02:26:07.055Z,5.97
2023-03-31T02:29:09.020Z,7.72
2023-03-31T02:32:21.904Z,6.60
2023-03-31T02:35:25.158Z,5.45
2023-03-31T02:38:27.209Z,5.43
2023-03-31T02:41:28.704Z,6.15
2023-03-31T02:44:31.482Z,6.20
2023-03-31T02:47:34.322Z,5.93
2023-03-31T02:50:54.696Z,5.88
2023-03-31T02:54:39.177Z,5.88
2023-03-31T02:57:51.827Z,5.63
2023-03-31T03:01:22.285Z,7.47
2023-03-31T03:04:41.878Z,6.78
2023-03-31T03:08:03.615Z,6.35
2023-03-31T03:11:18.642Z,6.33
2023-03-31T03:14:35.896Z,6.30
2023-03-31T03:17:49.894Z,6.43
2023-03-31T03:20:51.421Z,7.63
2023-03-31T03:23:53.015Z,6.65
2023-03-31T03:26:55.197Z,7.30
2023-03-31T03:29:56.621Z,7.60
2023-03-31T03:32:58.921Z,8.07
2023-03-31T03:36:00.621Z,7.15
2023-03-31T03:39:02.105Z,8.48
2023-03-31T03:42:03.820Z,8.60
2023-03-31T03:45:05.880Z,8.55
2023-03-31T03:48:07.350Z,7.28
2023-03-31T03:51:08.822Z,9.07
2023-03-31T03:54:10.370Z,7.97
2023-03-31T03:57:11.839Z,7.75
2023-03-31T04:00:13.592Z,7.97
2023-03-31T04:03:16.873Z,7.80
2023-03-31T04:06:18.367Z,8.15
2023-03-31T04:09:19.817Z,7.37
2023-03-31T04:12:21.288Z,7.35
2023-03-31T04:15:22.843Z,8.00
2023-03-31T04:18:24.289Z,9.80
2023-03-31T04:21:25.705Z,8.60
2023-03-31T04:24:32.621Z,8.20
2023-03-31T04:27:35.052Z,9.10
2023-03-31T04:30:39.695Z,8.70
2023-03-31T04:33:41.687Z,9.00
2023-03-31T04:36:48.562Z,9.32
2023-03-31T04:39:50.710Z,8.38
2023-03-31T04:45:53.767Z,9.70
2023-03-31T04:48:55.196Z,9.48
2023-03-31T04:51:56.603Z,9.33
2023-03-31T04:54:58.004Z,9.80
2023-03-31T04:57:59.676Z,8.70
2023-03-31T05:01:01.104Z,9.70
2023-03-31T05:04:06.261Z,8.97
2023-03-31T05:07:07.726Z,9.18
2023-03-31T05:10:09.957Z,9.43
2023-03-31T05:13:11.945Z,9.80
2023-03-31T05:16:14.597Z,9.88
2023-03-31T05:19:18.158Z,10.30
2023-03-31T05:22:20.644Z,9.57
2023-03-31T05:25:22.519Z,10.70
2023-03-31T05:28:23.960Z,10.65
2023-03-31T05:31:26.193Z,10.07
2023-03-31T05:37:29.478Z,8.95
2023-03-31T05:40:30.907Z,11.00
2023-03-31T05:43:32.519Z,10.43
2023-03-31T05:46:33.979Z,9.45
2023-03-31T05:49:35.472Z,10.90
2023-03-31T05:52:36.904Z,8.63
2023-03-31T05:55:39.008Z,8.80
2023-03-31T05:58:40.521Z,9.35
2023-03-31T06:01:42.265Z,10.02
2023-03-31T06:04:44.021Z,9.52
2023-03-31T06:07:45.712Z,10.45
2023-03-31T06:10:47.152Z,11.00
2023-03-31T06:13:49.148Z,10.60
2023-03-31T06:16:50.616Z,10.77
2023-03-31T06:19:52.049Z,9.57
2023-03-31T06:22:53.542Z,9.87
2023-03-31T06:25:59.005Z,9.13
2023-03-31T06:29:00.609Z,8.85
2023-03-31T06:32:04.950Z,6.72
2023-03-31T06:35:06.895Z,5.20
2023-03-31T06:38:08.852Z,5.55
2023-03-31T06:41:13.315Z,5.80
2023-03-31T06:44:16.590Z,6.00
2023-03-31T06:47:18.005Z,15.90
2023-03-31T06:50:19.738Z,6.00
2023-03-31T06:53:22.172Z,5.30
2023-03-31T06:56:23.811Z,4.93
2023-03-31T06:59:25.217Z,4.40
2023-03-31T07:02:26.730Z,4.57
2023-03-31T07:05:28.898Z,4.50
2023-03-31T07:08:31.013Z,3.13
2023-03-31T07:14:34.096Z,4.43
2023-03-31T07:17:37.449Z,4.80
2023-03-31T07:20:38.921Z,5.32
2023-03-31T07:23:40.626Z,4.73
2023-03-31T07:26:42.188Z,4.32
2023-03-31T07:29:43.730Z,3.92
2023-03-31T07:32:50.083Z,4.38
2023-03-31T07:36:00.298Z,3.97
2023-03-31T07:39:09.717Z,3.88
2023-03-31T07:42:11.172Z,3.63
2023-03-31T07:45:13.405Z,3.53
2023-03-31T07:48:15.055Z,2.70
2023-03-31T07:51:19.203Z,2.80
2023-03-31T07:54:20.858Z,2.90
2023-03-31T07:57:22.528Z,2.60
2023-03-31T08:00:24.610Z,2.90
2023-03-31T08:03:26.445Z,2.50
2023-03-31T08:06:29.890Z,2.70
2023-03-31T08:09:31.374Z,2.72
2023-03-31T08:12:40.754Z,2.23
2023-03-31T08:15:42.173Z,2.47
2023-03-31T08:18:43.716Z,2.10
2023-03-31T08:21:45.373Z,2.47
2023-03-31T08:24:47.316Z,2.05
2023-03-31T08:27:51.166Z,4.00
2023-03-31T08:30:52.659Z,2.85
2023-03-31T08:33:54.162Z,2.30
2023-03-31T08:36:55.595Z,2.43
2023-03-31T08:39:57.159Z,2.30
2023-03-31T08:43:06.450Z,2.88
2023-03-31T08:46:12.297Z,2.90
2023-03-31T08:49:17.696Z,4.10
2023-03-31T08:52:24.686Z,2.55
2023-03-31T08:55:34.433Z,4.03
2023-03-31T08:58:47.771Z,2.58
2023-03-31T09:02:06.111Z,2.35
2023-03-31T09:05:45.945Z,2.75
2023-03-31T09:09:01.792Z,4.28
2023-03-31T09:12:11.205Z,2.75
2023-03-31T09:15:27.887Z,2.88
2023-03-31T09:18:35.374Z,2.00
2023-03-31T09:21:43.712Z,2.30
2023-03-31T09:25:10.275Z,2.45
2023-03-31T09:28:30.906Z,2.25
2023-03-31T09:31:32.833Z,2.00
2023-03-31T09:34:34.637Z,1.65
2023-03-31T09:37:36.248Z,1.60
2023-03-31T09:40:38.057Z,1.80
2023-03-31T09:43:41.403Z,2.20
2023-03-31T09:46:43.179Z,1.88
2023-03-31T09:49:53.574Z,1.65
2023-03-31T09:52:59.709Z,2.33
2023-03-31T09:56:03.790Z,2.38
2023-03-31T09:59:05.408Z,2.13
2023-03-31T10:02:25.444Z,1.63
2023-03-31T10:05:33.930Z,1.88
2023-03-31T10:08:39.624Z,1.48
2023-03-31T10:11:52.813Z,2.35
2023-03-31T10:15:11.884Z,2.40
2023-03-31T10:18:18.877Z,1.85
2023-03-31T10:21:26.061Z,1.85
2023-03-31T10:24:38.043Z,1.38
2023-03-31T10:27:41.907Z,1.20
2023-03-31T10:30:48.520Z,1.15
2023-03-31T10:33:51.986Z,1.10
2023-03-31T10:36:53.600Z,1.15
2023-03-31T10:40:06.578Z,0.93
2023-03-31T10:43:17.152Z,1.23
2023-03-31T10:46:19.326Z,0.90
2023-03-31T10:52:24.876Z,2.30
2023-03-31T10:55:31.345Z,1.40
2023-03-31T10:59:04.500Z,1.20
2023-03-31T11:02:46.687Z,0.80
2023-03-31T11:05:52.405Z,1.00
2023-03-31T11:09:22.493Z,0.75
2023-03-31T11:12:26.848Z,1.58
2023-03-31T11:15:59.885Z,1.30
2023-03-31T11:19:07.299Z,2.22
2023-03-31T11:22:28.966Z,2.47
2023-03-31T11:25:39.882Z,1.20
2023-03-31T11:28:44.275Z,2.60
2023-03-31T11:32:20.436Z,2.53
2023-03-31T11:35:56.741Z,2.45
2023-03-31T11:39:17.024Z,1.67
2023-03-31T11:42:25.971Z,1.50
2023-03-31T11:45:36.222Z,2.00
2023-03-31T11:49:01.797Z,3.40
2023-03-31T11:52:09.873Z,3.03
2023-03-31T11:55:11.209Z,2.63
2023-03-31T11:58:21.906Z,2.60
2023-03-31T12:01:57.814Z,1.38
2023-03-31T12:04:59.773Z,1.30
2023-03-31T12:08:12.209Z,2.35
2023-03-31T12:14:17.697Z,1.85
2023-03-31T12:17:25.658Z,1.40
2023-03-31T12:20:57.719Z,1.50
2023-03-31T12:23:59.186Z,1.75
2023-03-31T12:27:14.754Z,1.33
2023-03-31T12:30:31.382Z,1.58
2023-03-31T12:33:41.166Z,1.48
2023-03-31T12:36:55.705Z,1.80
2023-03-31T12:40:24.045Z,2.70
2023-03-31T12:43:52.513Z,1.50
2023-03-31T12:47:18.841Z,1.73
2023-03-31T12:50:32.340Z,1.08
2023-03-31T12:53:52.458Z,1.20
2023-03-31T12:57:00.023Z,1.20
2023-03-31T13:00:13.746Z,0.95
2023-03-31T13:03:37.157Z,1.77
2023-03-31T13:06:38.559Z,1.10
2023-03-31T13:09:48.501Z,0.80
2023-03-31T13:13:14.373Z,2.15
2023-03-31T13:16:21.002Z,1.35
2023-03-31T13:19:34.743Z,1.10
2023-03-31T13:22:40.352Z,0.95
2023-03-31T13:25:50.618Z,1.08
2023-03-31T13:29:19.328Z,1.55
2023-03-31T13:32:23.276Z,1.10
2023-03-31T13:35:30.936Z,1.20
2023-03-31T13:39:00.358Z,1.02
2023-03-31T13:42:16.702Z,1.45
2023-03-31T13:45:45.319Z,1.48
2023-03-31T13:49:17.539Z,2.17
2023-03-31T13:52:33.413Z,1.95
2023-03-31T13:55:56.440Z,1.70
2023-03-31T13:59:06.039Z,1.40
2023-03-31T14:02:26.478Z,1.40
2023-03-31T14:05:33.908Z,1.30
2023-03-31T14:08:57.366Z,1.77
2023-03-31T14:12:00.302Z,1.27
2023-03-31T14:15:03.532Z,1.52
2023-03-31T14:18:06.883Z,0.80
2023-03-31T14:21:17.901Z,0.80
2023-03-31T14:24:26.289Z,0.70
2023-03-31T14:28:02.429Z,0.93
2023-03-31T14:31:26.878Z,1.13
2023-03-31T14:34:45.535Z,1.30
2023-03-31T14:37:48.907Z,1.02
2023-03-31T14:40:54.502Z,1.33
2023-03-31T14:44:00.472Z,1.40
2023-03-31T14:47:02.004Z,1.20
2023-03-31T14:50:12.950Z,1.10
2023-03-31T14:53:22.957Z,1.10
2023-03-31T14:56:37.379Z,1.13
2023-03-31T14:59:39.006Z,1.13
2023-03-31T15:02:43.402Z,1.13
2023-03-31T15:05:49.849Z,1.42
2023-03-31T15:08:56.341Z,1.13
2023-03-31T15:12:04.149Z,1.23
2023-03-31T15:15:06.693Z,0.82
2023-03-31T15:18:12.583Z,1.00
2023-03-31T15:21:25.774Z,1.08
2023-03-31T15:24:29.040Z,1.10
2023-03-31T15:27:39.854Z,1.48
2023-03-31T15:30:42.303Z,1.65
2023-03-31T15:33:44.077Z,1.30
2023-03-31T15:36:45.839Z,0.93
2023-03-31T15:39:48.768Z,0.80
2023-03-31T15:43:06.475Z,0.80
2023-03-31T15:46:45.523Z,1.50
2023-03-31T15:49:55.326Z,1.30
2023-03-31T15:52:58.112Z,1.00
2023-03-31T15:56:00.287Z,1.05
2023-03-31T15:59:04.359Z,0.85
2023-03-31T16:02:11.852Z,2.00
2023-03-31T16:05:37.409Z,1.00
2023-03-31T16:09:08.935Z,1.05
2023-03-31T16:12:43.031Z,1.88
2023-03-31T16:15:49.546Z,2.30
2023-03-31T16:18:54.727Z,2.05
2023-03-31T16:22:01.865Z,2.13
2023-03-31T16:25:09.136Z,1.60
2023-03-31T16:28:16.661Z,1.98
2023-03-31T16:31:36.534Z,1.70
2023-03-31T16:35:07.752Z,1.95
2023-03-31T16:38:11.583Z,1.45
2023-03-31T16:41:15.742Z,1.70
2023-03-31T16:44:17.181Z,1.50
2023-03-31T16:47:31.581Z,1.30
2023-03-31T16:50:41.154Z,2.38
2023-03-31T16:53:42.849Z,1.95
2023-03-31T16:56:44.287Z,2.30
2023-03-31T16:59:45.786Z,2.33
2023-03-31T17:02:47.551Z,2.05
2023-03-31T17:05:55.183Z,2.10
2023-03-31T17:08:58.642Z,2.42
2023-03-31T17:12:00.392Z,2.95
2023-03-31T17:15:01.906Z,2.30
2023-03-31T17:18:04.547Z,2.22
2023-03-31T17:21:14.041Z,2.15
2023-03-31T17:24:15.478Z,1.92
2023-03-31T17:27:16.939Z,2.20
2023-03-31T17:30:18.567Z,2.23
2023-03-31T17:33:20.424Z,1.77
2023-03-31T17:36:22.376Z,3.22
2023-03-31T17:39:23.824Z,1.90
2023-03-31T17:42:25.672Z,1.90
2023-03-31T17:45:27.217Z,1.70
2023-03-31T17:48:28.691Z,1.88
2023-03-31T17:51:34.372Z,2.07
2023-03-31T17:54:35.943Z,1.83
2023-03-31T17:57:38.933Z,2.08
2023-03-31T18:00:40.572Z,1.70
2023-03-31T18:03:42.384Z,2.17
2023-03-31T18:06:53.113Z,1.88
2023-03-31T18:09:54.786Z,2.33
2023-03-31T18:12:59.791Z,2.10
2023-03-31T18:16:05.260Z,1.88
2023-03-31T18:19:07.382Z,1.73
2023-03-31T18:22:09.948Z,1.58
2023-03-31T18:25:11.701Z,1.60
2023-03-31T18:28:15.087Z,1.70
2023-03-31T18:31:17.190Z,1.60
2023-03-31T18:34:19.537Z,1.70
2023-03-31T18:40:22.471Z,1.92
2023-03-31T18:43:24.552Z,2.08
2023-03-31T18:46:25.953Z,1.60
2023-03-31T18:49:27.725Z,1.60
2023-03-31T18:52:29.161Z,1.85
2023-03-31T18:55:30.820Z,1.97
2023-03-31T18:58:32.404Z,2.10
2023-03-31T19:01:37.216Z,2.17
2023-03-31T19:04:38.852Z,1.98
2023-03-31T19:07:40.978Z,1.60
2023-03-31T19:10:42.666Z,1.98
2023-03-31T19:13:44.353Z,1.90
2023-03-31T19:16:45.860Z,2.05
2023-03-31T19:19:47.620Z,2.43
2023-03-31T19:22:50.796Z,2.08
2023-03-31T19:25:57.487Z,2.22
2023-03-31T19:28:58.930Z,1.95
2023-03-31T19:32:01.427Z,1.80
2023-03-31T19:35:02.920Z,2.00
2023-03-31T19:38:05.118Z,1.90
2023-03-31T19:44:08.020Z,1.60
2023-03-31T19:47:09.443Z,1.60
2023-03-31T19:50:11.198Z,1.90
2023-03-31T19:53:13.679Z,1.55
2023-03-31T19:56:17.402Z,1.75
2023-03-31T19:59:19.044Z,1.60
2023-03-31T20:02:20.810Z,1.48
2023-03-31T20:05:22.357Z,1.75
2023-03-31T20:08:23.921Z,1.53
2023-03-31T20:11:26.888Z,1.48
2023-03-31T20:14:29.479Z,1.40
2023-03-31T20:17:30.941Z,1.65
2023-03-31T20:20:32.927Z,1.73
2023-03-31T20:23:34.925Z,2.00
2023-03-31T20:26:36.698Z,1.40
2023-03-31T20:29:38.328Z,1.33
2023-03-31T20:32:39.884Z,1.60
2023-03-31T20:35:41.829Z,1.53
2023-03-31T20:38:46.204Z,1.20
2023-03-31T20:41:49.509Z,1.40
2023-03-31T20:44:51.253Z,1.83
2023-03-31T20:47:52.741Z,1.52
2023-03-31T20:50:55.481Z,1.47
2023-03-31T20:53:59.048Z,1.40
2023-03-31T20:57:05.432Z,1.40
2023-03-31T21:00:07.572Z,1.60
2023-03-31T21:03:10.354Z,1.60
2023-03-31T21:06:14.173Z,1.20
2023-03-31T21:09:16.420Z,1.50
2023-03-31T21:15:19.246Z,1.40
2023-03-31T21:18:20.853Z,1.53
2023-03-31T21:21:24.321Z,1.50
2023-03-31T21:24:26.413Z,1.48
2023-03-31T21:27:27.936Z,1.60
2023-03-31T21:30:29.389Z,1.63
2023-03-31T21:33:31.723Z,1.83
2023-03-31T21:39:35.170Z,1.67
2023-03-31T21:42:37.422Z,1.60
2023-03-31T21:45:39.419Z,1.85
2023-03-31T21:48:40.808Z,2.22
2023-03-31T21:51:42.276Z,1.80
2023-03-31T21:54:46.679Z,1.50
2023-03-31T21:57:48.201Z,2.00
2023-03-31T22:00:49.588Z,1.97
2023-03-31T22:03:51.845Z,1.75
2023-03-31T22:09:54.786Z,1.73
2023-03-31T22:12:56.311Z,1.27
2023-03-31T22:16:00.005Z,1.30
2023-03-31T22:19:01.521Z,1.30
2023-03-31T22:22:14.095Z,1.33
2023-03-31T22:25:15.686Z,1.20
2023-03-31T22:28:17.649Z,1.45
2023-03-31T22:31:19.304Z,1.60
2023-03-31T22:34:20.900Z,1.65
2023-03-31T22:37:22.405Z,1.20
2023-03-31T22:40:23.931Z,1.07
2023-03-31T22:43:25.436Z,1.23
2023-03-31T22:46:26.917Z,1.53
2023-03-31T22:49:28.347Z,1.50
2023-03-31T22:52:29.965Z,1.50
2023-03-31T22:55:31.650Z,1.40
2023-03-31T22:58:33.624Z,1.50
2023-03-31T23:01:35.181Z,1.60
2023-03-31T23:04:36.622Z,2.20
2023-03-31T23:07:38.553Z,1.30
2023-03-31T23:10:40.189Z,1.73
2023-03-31T23:13:41.739Z,1.35
2023-03-31T23:16:43.369Z,1.77
2023-03-31T23:19:47.596Z,1.48
2023-03-31T23:22:50.088Z,1.20
2023-03-31T23:25:51.488Z,1.15
2023-03-31T23:28:54.429Z,1.03
2023-03-31T23:31:55.960Z,1.10
2023-03-31T23:34:57.485Z,1.20
2023-03-31T23:37:58.949Z,1.60
2023-03-31T23:41:01.628Z,0.93
2023-03-31T23:44:03.120Z,1.20
2023-03-31T23:47:05.776Z,1.30
2023-03-31T23:50:09.107Z,1.30
2023-03-31T23:53:11.387Z,1.10
2023-03-31T23:59:15.389Z,1.10
